sensor_id;sensor_type;location;lat;lon;timestamp;temperature;humidity
14008;DHT22;61651;45.508;12.232;2023-02-28T00:02:47;7.50;97.90
14008;DHT22;61651;45.508;12.232;2023-02-28T00:05:49;7.60;98.10
14008;DHT22;61651;45.508;12.232;2023-02-28T00:08:52;7.60;98.10
14008;DHT22;61651;45.508;12.232;2023-02-28T00:11:54;7.70;98.00
14008;DHT22;61651;45.508;12.232;2023-02-28T00:14:56;7.70;98.00
14008;DHT22;61651;45.508;12.232;2023-02-28T00:17:59;7.70;97.80
14008;DHT22;61651;45.508;12.232;2023-02-28T00:21:02;7.50;98.00
14008;DHT22;61651;45.508;12.232;2023-02-28T00:24:04;7.50;97.80
14008;DHT22;61651;45.508;12.232;2023-02-28T00:27:06;7.50;98.10
14008;DHT22;61651;45.508;12.232;2023-02-28T00:30:11;7.60;98.50
14008;DHT22;61651;45.508;12.232;2023-02-28T00:33:15;7.60;98.10
14008;DHT22;61651;45.508;12.232;2023-02-28T00:36:17;7.60;98.10
14008;DHT22;61651;45.508;12.232;2023-02-28T00:39:19;7.60;98.20
14008;DHT22;61651;45.508;12.232;2023-02-28T00:42:21;7.70;98.20
14008;DHT22;61651;45.508;12.232;2023-02-28T00:45:23;7.70;98.10
14008;DHT22;61651;45.508;12.232;2023-02-28T00:48:27;7.80;98.40
14008;DHT22;61651;45.508;12.232;2023-02-28T00:51:29;7.80;98.00
14008;DHT22;61651;45.508;12.232;2023-02-28T00:54:31;7.80;97.90
14008;DHT22;61651;45.508;12.232;2023-02-28T00:57:33;7.90;98.10
14008;DHT22;61651;45.508;12.232;2023-02-28T01:00:35;7.90;98.10
14008;DHT22;61651;45.508;12.232;2023-02-28T01:03:39;8.00;98.00
14008;DHT22;61651;45.508;12.232;2023-02-28T01:06:41;8.00;98.20
14008;DHT22;61651;45.508;12.232;2023-02-28T01:09:43;8.00;98.00
14008;DHT22;61651;45.508;12.232;2023-02-28T01:12:45;8.00;98.10
14008;DHT22;61651;45.508;12.232;2023-02-28T01:15:50;7.90;98.00
14008;DHT22;61651;45.508;12.232;2023-02-28T01:18:54;7.90;98.10
14008;DHT22;61651;45.508;12.232;2023-02-28T01:28:07;7.90;98.10
14008;DHT22;61651;45.508;12.232;2023-02-28T01:31:10;8.00;98.30
14008;DHT22;61651;45.508;12.232;2023-02-28T01:34:13;8.00;98.30
14008;DHT22;61651;45.508;12.232;2023-02-28T01:37:15;8.00;98.30
14008;DHT22;61651;45.508;12.232;2023-02-28T01:40:17;8.10;98.40
14008;DHT22;61651;45.508;12.232;2023-02-28T01:43:22;8.10;98.40
14008;DHT22;61651;45.508;12.232;2023-02-28T01:46:25;8.10;98.30
14008;DHT22;61651;45.508;12.232;2023-02-28T01:49:29;8.20;98.30
14008;DHT22;61651;45.508;12.232;2023-02-28T01:52:31;8.20;98.30
14008;DHT22;61651;45.508;12.232;2023-02-28T01:55:34;8.20;98.20
14008;DHT22;61651;45.508;12.232;2023-02-28T01:58:38;8.10;98.80
14008;DHT22;61651;45.508;12.232;2023-02-28T02:01:40;8.20;98.50
14008;DHT22;61651;45.508;12.232;2023-02-28T02:04:51;8.20;98.30
14008;DHT22;61651;45.508;12.232;2023-02-28T02:07:55;8.20;98.20
14008;DHT22;61651;45.508;12.232;2023-02-28T02:11:00;8.20;98.40
14008;DHT22;61651;45.508;12.232;2023-02-28T02:14:17;8.20;98.20
14008;DHT22;61651;45.508;12.232;2023-02-28T02:17:30;8.30;98.20
14008;DHT22;61651;45.508;12.232;2023-02-28T02:21:01;8.30;98.00
14008;DHT22;61651;45.508;12.232;2023-02-28T02:24:26;8.30;98.20
14008;DHT22;61651;45.508;12.232;2023-02-28T02:27:54;8.30;98.30
14008;DHT22;61651;45.508;12.232;2023-02-28T02:31:11;8.30;98.30
14008;DHT22;61651;45.508;12.232;2023-02-28T02:37:52;8.20;98.20
14008;DHT22;61651;45.508;12.232;2023-02-28T02:41:01;8.10;98.10
14008;DHT22;61651;45.508;12.232;2023-02-28T02:44:10;8.00;98.40
14008;DHT22;61651;45.508;12.232;2023-02-28T02:47:16;8.10;98.50
14008;DHT22;61651;45.508;12.232;2023-02-28T02:50:23;8.20;98.70
14008;DHT22;61651;45.508;12.232;2023-02-28T02:53:30;8.30;98.50
14008;DHT22;61651;45.508;12.232;2023-02-28T02:56:35;8.30;98.60
14008;DHT22;61651;45.508;12.232;2023-02-28T02:59:39;8.40;98.40
14008;DHT22;61651;45.508;12.232;2023-02-28T03:02:43;8.30;98.40
14008;DHT22;61651;45.508;12.232;2023-02-28T03:05:49;8.30;98.40
14008;DHT22;61651;45.508;12.232;2023-02-28T03:08:53;8.40;98.60
14008;DHT22;61651;45.508;12.232;2023-02-28T03:11:56;8.40;98.50
14008;DHT22;61651;45.508;12.232;2023-02-28T03:15:07;8.50;98.50
14008;DHT22;61651;45.508;12.232;2023-02-28T03:18:13;8.50;98.50
14008;DHT22;61651;45.508;12.232;2023-02-28T03:21:22;8.40;98.20
14008;DHT22;61651;45.508;12.232;2023-02-28T03:24:32;8.30;98.50
14008;DHT22;61651;45.508;12.232;2023-02-28T03:27:41;8.40;98.70
14008;DHT22;61651;45.508;12.232;2023-02-28T03:30:49;8.40;98.70
14008;DHT22;61651;45.508;12.232;2023-02-28T03:33:59;8.40;98.60
14008;DHT22;61651;45.508;12.232;2023-02-28T03:37:07;8.50;98.50
14008;DHT22;61651;45.508;12.232;2023-02-28T03:40:15;8.50;98.40
14008;DHT22;61651;45.508;12.232;2023-02-28T03:43:22;8.40;98.40
14008;DHT22;61651;45.508;12.232;2023-02-28T03:46:28;8.40;98.60
14008;DHT22;61651;45.508;12.232;2023-02-28T03:49:36;8.40;98.90
14008;DHT22;61651;45.508;12.232;2023-02-28T03:52:42;8.40;98.80
14008;DHT22;61651;45.508;12.232;2023-02-28T03:55:49;8.40;98.50
14008;DHT22;61651;45.508;12.232;2023-02-28T03:58:57;8.30;98.60
14008;DHT22;61651;45.508;12.232;2023-02-28T04:02:00;8.30;98.50
14008;DHT22;61651;45.508;12.232;2023-02-28T04:05:03;8.30;98.60
14008;DHT22;61651;45.508;12.232;2023-02-28T04:08:07;8.40;98.60
14008;DHT22;61651;45.508;12.232;2023-02-28T04:11:18;8.40;98.70
14008;DHT22;61651;45.508;12.232;2023-02-28T04:14:21;8.40;98.50
14008;DHT22;61651;45.508;12.232;2023-02-28T04:17:23;8.40;98.50
14008;DHT22;61651;45.508;12.232;2023-02-28T04:20:25;8.30;98.40
14008;DHT22;61651;45.508;12.232;2023-02-28T04:23:27;8.30;98.70
14008;DHT22;61651;45.508;12.232;2023-02-28T04:26:31;8.20;98.70
14008;DHT22;61651;45.508;12.232;2023-02-28T04:29:34;8.10;98.40
14008;DHT22;61651;45.508;12.232;2023-02-28T04:32:36;8.10;98.70
14008;DHT22;61651;45.508;12.232;2023-02-28T04:35:38;8.10;98.80
14008;DHT22;61651;45.508;12.232;2023-02-28T04:38:40;8.10;98.80
14008;DHT22;61651;45.508;12.232;2023-02-28T04:41:44;8.00;98.70
14008;DHT22;61651;45.508;12.232;2023-02-28T04:44:46;8.00;98.80
14008;DHT22;61651;45.508;12.232;2023-02-28T04:47:48;8.00;99.10
14008;DHT22;61651;45.508;12.232;2023-02-28T04:50:50;7.90;98.60
14008;DHT22;61651;45.508;12.232;2023-02-28T04:53:53;7.80;98.60
14008;DHT22;61651;45.508;12.232;2023-02-28T04:56:57;7.70;98.80
14008;DHT22;61651;45.508;12.232;2023-02-28T04:59:59;7.80;98.70
14008;DHT22;61651;45.508;12.232;2023-02-28T05:03:01;7.80;99.10
14008;DHT22;61651;45.508;12.232;2023-02-28T05:06:03;7.70;98.90
14008;DHT22;61651;45.508;12.232;2023-02-28T05:09:05;7.60;98.90
14008;DHT22;61651;45.508;12.232;2023-02-28T05:12:08;7.60;98.90
14008;DHT22;61651;45.508;12.232;2023-02-28T05:15:12;7.60;98.70
14008;DHT22;61651;45.508;12.232;2023-02-28T05:18:15;7.60;98.90
14008;DHT22;61651;45.508;12.232;2023-02-28T05:21:28;7.60;99.00
14008;DHT22;61651;45.508;12.232;2023-02-28T05:24:30;7.60;99.00
14008;DHT22;61651;45.508;12.232;2023-02-28T05:27:34;7.60;98.90
14008;DHT22;61651;45.508;12.232;2023-02-28T05:30:36;7.60;99.00
14008;DHT22;61651;45.508;12.232;2023-02-28T05:33:38;7.60;98.90
14008;DHT22;61651;45.508;12.232;2023-02-28T05:36:40;7.50;98.90
14008;DHT22;61651;45.508;12.232;2023-02-28T05:39:42;7.50;98.80
14008;DHT22;61651;45.508;12.232;2023-02-28T05:42:46;7.50;98.90
14008;DHT22;61651;45.508;12.232;2023-02-28T05:45:48;7.40;98.90
14008;DHT22;61651;45.508;12.232;2023-02-28T05:48:50;7.50;98.90
14008;DHT22;61651;45.508;12.232;2023-02-28T05:51:52;7.40;98.80
14008;DHT22;61651;45.508;12.232;2023-02-28T05:54:54;7.40;98.90
14008;DHT22;61651;45.508;12.232;2023-02-28T05:58:01;7.30;99.00
14008;DHT22;61651;45.508;12.232;2023-02-28T06:01:21;7.20;99.10
14008;DHT22;61651;45.508;12.232;2023-02-28T06:04:23;7.20;99.20
14008;DHT22;61651;45.508;12.232;2023-02-28T06:07:26;7.30;99.30
14008;DHT22;61651;45.508;12.232;2023-02-28T06:10:27;7.20;99.10
14008;DHT22;61651;45.508;12.232;2023-02-28T06:13:31;7.30;99.40
14008;DHT22;61651;45.508;12.232;2023-02-28T06:16:34;7.30;99.30
14008;DHT22;61651;45.508;12.232;2023-02-28T06:19:37;7.30;99.40
14008;DHT22;61651;45.508;12.232;2023-02-28T06:22:40;7.40;99.40
14008;DHT22;61651;45.508;12.232;2023-02-28T06:25:45;7.40;99.40
14008;DHT22;61651;45.508;12.232;2023-02-28T06:28:48;7.50;99.70
14008;DHT22;61651;45.508;12.232;2023-02-28T06:31:50;7.50;99.80
14008;DHT22;61651;45.508;12.232;2023-02-28T06:34:52;7.60;99.60
14008;DHT22;61651;45.508;12.232;2023-02-28T06:37:54;7.50;99.70
14008;DHT22;61651;45.508;12.232;2023-02-28T06:40:57;7.60;99.90
14008;DHT22;61651;45.508;12.232;2023-02-28T06:44:01;7.60;99.90
14008;DHT22;61651;45.508;12.232;2023-02-28T06:47:03;7.60;99.60
14008;DHT22;61651;45.508;12.232;2023-02-28T06:50:07;7.50;99.40
14008;DHT22;61651;45.508;12.232;2023-02-28T06:53:10;7.50;99.90
14008;DHT22;61651;45.508;12.232;2023-02-28T06:56:14;7.60;99.90
14008;DHT22;61651;45.508;12.232;2023-02-28T06:59:17;7.70;99.90
14008;DHT22;61651;45.508;12.232;2023-02-28T07:02:19;7.80;99.90
14008;DHT22;61651;45.508;12.232;2023-02-28T07:05:21;7.80;99.90
14008;DHT22;61651;45.508;12.232;2023-02-28T07:08:24;7.90;99.90
14008;DHT22;61651;45.508;12.232;2023-02-28T07:11:30;8.00;99.90
14008;DHT22;61651;45.508;12.232;2023-02-28T07:14:40;8.10;99.90
14008;DHT22;61651;45.508;12.232;2023-02-28T07:17:43;7.90;99.20
14008;DHT22;61651;45.508;12.232;2023-02-28T07:20:45;8.00;99.50
14008;DHT22;61651;45.508;12.232;2023-02-28T07:23:47;8.00;99.70
14008;DHT22;61651;45.508;12.232;2023-02-28T07:26:49;8.10;99.60
14008;DHT22;61651;45.508;12.232;2023-02-28T07:29:53;8.00;99.10
14008;DHT22;61651;45.508;12.232;2023-02-28T07:32:55;8.00;99.60
14008;DHT22;61651;45.508;12.232;2023-02-28T07:36:00;8.00;99.70
14008;DHT22;61651;45.508;12.232;2023-02-28T07:39:03;7.90;99.50
14008;DHT22;61651;45.508;12.232;2023-02-28T07:42:05;8.00;99.70
14008;DHT22;61651;45.508;12.232;2023-02-28T07:45:11;8.30;99.60
14008;DHT22;61651;45.508;12.232;2023-02-28T07:48:13;8.30;99.50
14008;DHT22;61651;45.508;12.232;2023-02-28T07:51:15;8.40;99.80
14008;DHT22;61651;45.508;12.232;2023-02-28T07:54:17;8.60;99.50
14008;DHT22;61651;45.508;12.232;2023-02-28T07:57:20;8.70;99.40
14008;DHT22;61651;45.508;12.232;2023-02-28T08:00:24;8.70;99.40
14008;DHT22;61651;45.508;12.232;2023-02-28T08:03:26;8.70;99.60
14008;DHT22;61651;45.508;12.232;2023-02-28T08:06:28;8.70;99.20
14008;DHT22;61651;45.508;12.232;2023-02-28T08:09:30;8.70;99.20
14008;DHT22;61651;45.508;12.232;2023-02-28T08:12:32;8.80;99.40
14008;DHT22;61651;45.508;12.232;2023-02-28T08:15:36;8.90;99.40
14008;DHT22;61651;45.508;12.232;2023-02-28T08:18:39;9.00;99.30
14008;DHT22;61651;45.508;12.232;2023-02-28T08:21:41;9.00;99.20
14008;DHT22;61651;45.508;12.232;2023-02-28T08:24:43;8.90;99.30
14008;DHT22;61651;45.508;12.232;2023-02-28T08:27:45;9.00;99.50
14008;DHT22;61651;45.508;12.232;2023-02-28T08:30:48;9.00;99.30
14008;DHT22;61651;45.508;12.232;2023-02-28T08:33:52;9.10;99.00
14008;DHT22;61651;45.508;12.232;2023-02-28T08:36:56;9.20;99.10
14008;DHT22;61651;45.508;12.232;2023-02-28T08:39:58;9.30;98.70
14008;DHT22;61651;45.508;12.232;2023-02-28T08:43:00;9.30;98.80
14008;DHT22;61651;45.508;12.232;2023-02-28T08:46:04;9.30;98.80
14008;DHT22;61651;45.508;12.232;2023-02-28T08:49:06;9.30;99.00
14008;DHT22;61651;45.508;12.232;2023-02-28T08:52:08;9.30;99.00
14008;DHT22;61651;45.508;12.232;2023-02-28T08:55:10;9.40;99.40
14008;DHT22;61651;45.508;12.232;2023-02-28T08:58:12;9.50;99.50
14008;DHT22;61651;45.508;12.232;2023-02-28T09:01:16;9.50;99.20
14008;DHT22;61651;45.508;12.232;2023-02-28T09:04:19;9.50;98.70
14008;DHT22;61651;45.508;12.232;2023-02-28T09:07:21;9.60;99.10
14008;DHT22;61651;45.508;12.232;2023-02-28T09:10:23;9.70;99.10
14008;DHT22;61651;45.508;12.232;2023-02-28T09:13:25;9.80;99.10
14008;DHT22;61651;45.508;12.232;2023-02-28T09:16:29;9.90;99.10
14008;DHT22;61651;45.508;12.232;2023-02-28T09:19:32;9.90;98.70
14008;DHT22;61651;45.508;12.232;2023-02-28T09:22:34;10.00;99.00
14008;DHT22;61651;45.508;12.232;2023-02-28T09:25:36;10.10;99.00
14008;DHT22;61651;45.508;12.232;2023-02-28T09:28:39;10.00;98.30
14008;DHT22;61651;45.508;12.232;2023-02-28T09:31:42;10.00;98.40
14008;DHT22;61651;45.508;12.232;2023-02-28T09:34:44;10.10;98.60
14008;DHT22;61651;45.508;12.232;2023-02-28T09:37:46;10.10;98.50
14008;DHT22;61651;45.508;12.232;2023-02-28T09:40:50;10.20;98.50
14008;DHT22;61651;45.508;12.232;2023-02-28T09:43:55;10.20;98.60
14008;DHT22;61651;45.508;12.232;2023-02-28T09:47:01;10.30;98.80
14008;DHT22;61651;45.508;12.232;2023-02-28T09:50:16;10.40;98.90
14008;DHT22;61651;45.508;12.232;2023-02-28T09:53:22;10.40;98.70
14008;DHT22;61651;45.508;12.232;2023-02-28T09:56:31;10.40;98.40
14008;DHT22;61651;45.508;12.232;2023-02-28T09:59:41;10.50;98.90
14008;DHT22;61651;45.508;12.232;2023-02-28T10:03:06;10.60;98.50
14008;DHT22;61651;45.508;12.232;2023-02-28T10:06:16;10.70;98.60
14008;DHT22;61651;45.508;12.232;2023-02-28T10:09:22;10.80;98.70
14008;DHT22;61651;45.508;12.232;2023-02-28T10:12:26;10.90;98.40
14008;DHT22;61651;45.508;12.232;2023-02-28T10:15:31;11.00;98.60
14008;DHT22;61651;45.508;12.232;2023-02-28T10:18:41;11.10;98.90
14008;DHT22;61651;45.508;12.232;2023-02-28T10:21:47;11.30;98.40
14008;DHT22;61651;45.508;12.232;2023-02-28T10:24:52;11.30;98.10
14008;DHT22;61651;45.508;12.232;2023-02-28T10:27:59;11.40;98.30
14008;DHT22;61651;45.508;12.232;2023-02-28T10:31:03;11.40;98.30
14008;DHT22;61651;45.508;12.232;2023-02-28T10:34:07;11.50;98.40
14008;DHT22;61651;45.508;12.232;2023-02-28T10:37:10;11.50;97.90
14008;DHT22;61651;45.508;12.232;2023-02-28T10:40:27;11.50;98.40
14008;DHT22;61651;45.508;12.232;2023-02-28T10:43:29;11.60;97.90
14008;DHT22;61651;45.508;12.232;2023-02-28T10:46:33;11.60;97.80
14008;DHT22;61651;45.508;12.232;2023-02-28T10:49:37;11.80;98.10
14008;DHT22;61651;45.508;12.232;2023-02-28T10:52:47;11.90;98.20
14008;DHT22;61651;45.508;12.232;2023-02-28T10:55:57;12.00;98.60
14008;DHT22;61651;45.508;12.232;2023-02-28T10:59:02;12.10;98.00
14008;DHT22;61651;45.508;12.232;2023-02-28T11:02:29;12.20;98.00
14008;DHT22;61651;45.508;12.232;2023-02-28T11:05:35;12.20;98.00
14008;DHT22;61651;45.508;12.232;2023-02-28T11:08:45;12.20;97.90
14008;DHT22;61651;45.508;12.232;2023-02-28T11:11:49;12.30;98.20
14008;DHT22;61651;45.508;12.232;2023-02-28T11:14:53;12.40;98.10
14008;DHT22;61651;45.508;12.232;2023-02-28T11:17:58;12.40;97.70
14008;DHT22;61651;45.508;12.232;2023-02-28T11:21:03;12.60;97.90
14008;DHT22;61651;45.508;12.232;2023-02-28T11:24:12;12.60;98.10
14008;DHT22;61651;45.508;12.232;2023-02-28T11:27:40;12.60;97.70
14008;DHT22;61651;45.508;12.232;2023-02-28T11:30:42;12.70;98.50
14008;DHT22;61651;45.508;12.232;2023-02-28T11:33:47;12.80;98.50
14008;DHT22;61651;45.508;12.232;2023-02-28T11:36:54;12.90;97.90
14008;DHT22;61651;45.508;12.232;2023-02-28T11:39:57;13.00;98.20
14008;DHT22;61651;45.508;12.232;2023-02-28T11:43:09;13.20;98.10
14008;DHT22;61651;45.508;12.232;2023-02-28T11:46:22;13.30;97.90
14008;DHT22;61651;45.508;12.232;2023-02-28T11:49:32;13.30;97.80
14008;DHT22;61651;45.508;12.232;2023-02-28T11:52:45;13.30;97.60
14008;DHT22;61651;45.508;12.232;2023-02-28T11:55:54;13.40;97.00
14008;DHT22;61651;45.508;12.232;2023-02-28T11:59:14;13.40;96.70
14008;DHT22;61651;45.508;12.232;2023-02-28T12:02:25;13.50;97.30
14008;DHT22;61651;45.508;12.232;2023-02-28T12:05:35;13.50;96.70
14008;DHT22;61651;45.508;12.232;2023-02-28T12:08:52;13.50;96.80
14008;DHT22;61651;45.508;12.232;2023-02-28T12:11:59;13.70;96.70
14008;DHT22;61651;45.508;12.232;2023-02-28T12:15:28;13.80;96.80
14008;DHT22;61651;45.508;12.232;2023-02-28T12:18:53;14.00;96.40
14008;DHT22;61651;45.508;12.232;2023-02-28T12:22:12;14.30;97.10
14008;DHT22;61651;45.508;12.232;2023-02-28T12:25:46;14.50;96.70
14008;DHT22;61651;45.508;12.232;2023-02-28T12:28:53;14.50;96.30
14008;DHT22;61651;45.508;12.232;2023-02-28T12:31:59;14.60;96.50
14008;DHT22;61651;45.508;12.232;2023-02-28T12:35:11;14.80;96.30
14008;DHT22;61651;45.508;12.232;2023-02-28T12:38:17;14.70;95.50
14008;DHT22;61651;45.508;12.232;2023-02-28T12:41:26;14.70;96.00
14008;DHT22;61651;45.508;12.232;2023-02-28T12:44:33;14.80;96.30
14008;DHT22;61651;45.508;12.232;2023-02-28T12:47:37;15.00;96.80
14008;DHT22;61651;45.508;12.232;2023-02-28T12:50:40;15.10;95.90
14008;DHT22;61651;45.508;12.232;2023-02-28T12:53:54;15.20;96.60
14008;DHT22;61651;45.508;12.232;2023-02-28T12:57:08;15.40;98.00
14008;DHT22;61651;45.508;12.232;2023-02-28T13:00:13;15.50;98.90
14008;DHT22;61651;45.508;12.232;2023-02-28T13:07:19;15.90;96.80
14008;DHT22;61651;45.508;12.232;2023-02-28T13:10:38;15.90;95.80
14008;DHT22;61651;45.508;12.232;2023-02-28T13:13:44;15.90;95.60
14008;DHT22;61651;45.508;12.232;2023-02-28T13:17:10;16.10;96.10
14008;DHT22;61651;45.508;12.232;2023-02-28T13:20:17;16.20;95.90
14008;DHT22;61651;45.508;12.232;2023-02-28T13:23:57;16.30;95.40
14008;DHT22;61651;45.508;12.232;2023-02-28T13:27:24;16.40;95.70
14008;DHT22;61651;45.508;12.232;2023-02-28T13:31:05;16.70;96.20
14008;DHT22;61651;45.508;12.232;2023-02-28T13:34:15;16.90;95.30
14008;DHT22;61651;45.508;12.232;2023-02-28T13:37:35;17.10;95.00
14008;DHT22;61651;45.508;12.232;2023-02-28T13:40:38;17.30;94.50
14008;DHT22;61651;45.508;12.232;2023-02-28T13:44:01;17.40;94.60
14008;DHT22;61651;45.508;12.232;2023-02-28T13:47:32;17.60;94.30
14008;DHT22;61651;45.508;12.232;2023-02-28T13:50:37;17.90;94.70
14008;DHT22;61651;45.508;12.232;2023-02-28T13:53:55;18.10;94.50
14008;DHT22;61651;45.508;12.232;2023-02-28T13:57:11;18.30;94.30
14008;DHT22;61651;45.508;12.232;2023-02-28T14:00:22;18.60;93.50
14008;DHT22;61651;45.508;12.232;2023-02-28T14:03:51;18.60;92.70
14008;DHT22;61651;45.508;12.232;2023-02-28T14:06:55;18.70;93.10
14008;DHT22;61651;45.508;12.232;2023-02-28T14:10:01;18.80;92.80
14008;DHT22;61651;45.508;12.232;2023-02-28T14:20:22;18.50;92.40
14008;DHT22;61651;45.508;12.232;2023-02-28T14:23:41;18.40;92.30
14008;DHT22;61651;45.508;12.232;2023-02-28T14:26:58;18.30;92.40
14008;DHT22;61651;45.508;12.232;2023-02-28T14:33:46;17.80;92.20
14008;DHT22;61651;45.508;12.232;2023-02-28T14:36:54;17.60;92.40
14008;DHT22;61651;45.508;12.232;2023-02-28T14:40:00;17.40;92.30
14008;DHT22;61651;45.508;12.232;2023-02-28T14:43:06;17.10;92.40
14008;DHT22;61651;45.508;12.232;2023-02-28T14:46:21;16.90;92.60
14008;DHT22;61651;45.508;12.232;2023-02-28T14:49:27;16.90;93.30
14008;DHT22;61651;45.508;12.232;2023-02-28T14:52:32;16.90;93.50
14008;DHT22;61651;45.508;12.232;2023-02-28T14:55:35;16.90;93.50
14008;DHT22;61651;45.508;12.232;2023-02-28T14:58:37;17.00;93.80
14008;DHT22;61651;45.508;12.232;2023-02-28T15:01:39;17.00;94.20
14008;DHT22;61651;45.508;12.232;2023-02-28T15:04:41;17.00;94.00
14008;DHT22;61651;45.508;12.232;2023-02-28T15:07:46;17.10;93.70
14008;DHT22;61651;45.508;12.232;2023-02-28T15:10:54;17.20;93.50
14008;DHT22;61651;45.508;12.232;2023-02-28T15:13:57;17.40;93.50
14008;DHT22;61651;45.508;12.232;2023-02-28T15:17:01;17.60;92.90
14008;DHT22;61651;45.508;12.232;2023-02-28T15:20:04;17.60;93.00
14008;DHT22;61651;45.508;12.232;2023-02-28T15:23:09;17.70;93.00
14008;DHT22;61651;45.508;12.232;2023-02-28T15:26:14;17.80;93.30
14008;DHT22;61651;45.508;12.232;2023-02-28T15:29:20;17.90;92.90
14008;DHT22;61651;45.508;12.232;2023-02-28T15:32:28;18.00;92.60
14008;DHT22;61651;45.508;12.232;2023-02-28T15:35:32;18.00;92.60
14008;DHT22;61651;45.508;12.232;2023-02-28T15:38:36;18.10;92.60
14008;DHT22;61651;45.508;12.232;2023-02-28T15:41:38;18.10;92.30
14008;DHT22;61651;45.508;12.232;2023-02-28T15:44:41;18.00;92.20
14008;DHT22;61651;45.508;12.232;2023-02-28T15:47:46;18.00;92.40
14008;DHT22;61651;45.508;12.232;2023-02-28T15:50:51;17.90;92.50
14008;DHT22;61651;45.508;12.232;2023-02-28T15:53:58;18.00;92.70
14008;DHT22;61651;45.508;12.232;2023-02-28T15:57:04;17.90;92.80
14008;DHT22;61651;45.508;12.232;2023-02-28T16:00:12;17.70;92.60
14008;DHT22;61651;45.508;12.232;2023-02-28T16:03:25;17.60;92.40
14008;DHT22;61651;45.508;12.232;2023-02-28T16:06:35;17.20;92.40
14008;DHT22;61651;45.508;12.232;2023-02-28T16:09:38;16.80;92.70
14008;DHT22;61651;45.508;12.232;2023-02-28T16:12:43;16.40;92.90
14008;DHT22;61651;45.508;12.232;2023-02-28T16:15:45;16.10;93.50
14008;DHT22;61651;45.508;12.232;2023-02-28T16:18:47;15.80;93.50
14008;DHT22;61651;45.508;12.232;2023-02-28T16:21:49;15.50;93.90
14008;DHT22;61651;45.508;12.232;2023-02-28T16:24:53;15.30;94.10
14008;DHT22;61651;45.508;12.232;2023-02-28T16:27:55;15.00;94.20
14008;DHT22;61651;45.508;12.232;2023-02-28T16:30:59;14.90;94.40
14008;DHT22;61651;45.508;12.232;2023-02-28T16:34:03;14.70;94.70
14008;DHT22;61651;45.508;12.232;2023-02-28T16:37:11;14.50;94.80
14008;DHT22;61651;45.508;12.232;2023-02-28T16:40:17;14.30;94.90
14008;DHT22;61651;45.508;12.232;2023-02-28T16:43:24;14.20;95.20
14008;DHT22;61651;45.508;12.232;2023-02-28T16:46:31;14.00;95.30
14008;DHT22;61651;45.508;12.232;2023-02-28T16:49:35;13.90;95.70
14008;DHT22;61651;45.508;12.232;2023-02-28T16:52:37;13.80;95.80
14008;DHT22;61651;45.508;12.232;2023-02-28T16:55:40;13.70;96.10
14008;DHT22;61651;45.508;12.232;2023-02-28T16:58:42;13.60;96.20
14008;DHT22;61651;45.508;12.232;2023-02-28T17:01:44;13.50;96.30
14008;DHT22;61651;45.508;12.232;2023-02-28T17:04:47;13.30;96.10
14008;DHT22;61651;45.508;12.232;2023-02-28T17:07:49;13.20;96.20
14008;DHT22;61651;45.508;12.232;2023-02-28T17:10:53;13.10;96.10
14008;DHT22;61651;45.508;12.232;2023-02-28T17:13:55;13.00;96.00
14008;DHT22;61651;45.508;12.232;2023-02-28T17:16:57;12.90;95.70
14008;DHT22;61651;45.508;12.232;2023-02-28T17:19:59;12.70;95.40
14008;DHT22;61651;45.508;12.232;2023-02-28T17:23:01;12.40;95.60
14008;DHT22;61651;45.508;12.232;2023-02-28T17:26:05;12.40;95.40
14008;DHT22;61651;45.508;12.232;2023-02-28T17:29:14;12.30;95.20
14008;DHT22;61651;45.508;12.232;2023-02-28T17:32:16;12.20;94.90
14008;DHT22;61651;45.508;12.232;2023-02-28T17:35:19;12.10;95.00
14008;DHT22;61651;45.508;12.232;2023-02-28T17:38:21;12.10;95.20
14008;DHT22;61651;45.508;12.232;2023-02-28T17:41:25;12.00;95.20
14008;DHT22;61651;45.508;12.232;2023-02-28T17:44:30;11.90;95.20
14008;DHT22;61651;45.508;12.232;2023-02-28T17:47:32;11.60;95.40
14008;DHT22;61651;45.508;12.232;2023-02-28T17:50:34;11.50;95.60
14008;DHT22;61651;45.508;12.232;2023-02-28T17:53:36;11.60;95.70
14008;DHT22;61651;45.508;12.232;2023-02-28T17:56:40;11.50;95.90
14008;DHT22;61651;45.508;12.232;2023-02-28T17:59:43;11.40;95.70
14008;DHT22;61651;45.508;12.232;2023-02-28T18:02:45;11.40;95.90
14008;DHT22;61651;45.508;12.232;2023-02-28T18:05:48;11.30;96.20
14008;DHT22;61651;45.508;12.232;2023-02-28T18:08:50;11.20;96.40
14008;DHT22;61651;45.508;12.232;2023-02-28T18:11:55;11.20;96.50
14008;DHT22;61651;45.508;12.232;2023-02-28T18:14:57;11.00;96.10
14008;DHT22;61651;45.508;12.232;2023-02-28T18:17:59;11.00;96.50
14008;DHT22;61651;45.508;12.232;2023-02-28T18:21:03;10.90;96.40
14008;DHT22;61651;45.508;12.232;2023-02-28T18:24:06;10.80;96.30
14008;DHT22;61651;45.508;12.232;2023-02-28T18:27:09;10.80;96.60
14008;DHT22;61651;45.508;12.232;2023-02-28T18:30:12;10.80;96.70
14008;DHT22;61651;45.508;12.232;2023-02-28T18:33:14;10.60;97.00
14008;DHT22;61651;45.508;12.232;2023-02-28T18:36:17;10.70;97.00
14008;DHT22;61651;45.508;12.232;2023-02-28T18:39:20;10.50;96.50
14008;DHT22;61651;45.508;12.232;2023-02-28T18:42:23;10.50;96.70
14008;DHT22;61651;45.508;12.232;2023-02-28T18:45:26;10.40;96.50
14008;DHT22;61651;45.508;12.232;2023-02-28T18:48:28;10.40;96.70
14008;DHT22;61651;45.508;12.232;2023-02-28T18:51:30;10.30;96.60
14008;DHT22;61651;45.508;12.232;2023-02-28T18:54:33;10.20;96.50
14008;DHT22;61651;45.508;12.232;2023-02-28T18:57:37;10.20;96.60
14008;DHT22;61651;45.508;12.232;2023-02-28T19:00:39;10.10;96.60
14008;DHT22;61651;45.508;12.232;2023-02-28T19:03:43;10.10;96.90
14008;DHT22;61651;45.508;12.232;2023-02-28T19:06:46;10.10;96.70
14008;DHT22;61651;45.508;12.232;2023-02-28T19:09:49;10.10;97.00
14008;DHT22;61651;45.508;12.232;2023-02-28T19:12:52;10.10;97.10
14008;DHT22;61651;45.508;12.232;2023-02-28T19:16:00;10.10;97.10
14008;DHT22;61651;45.508;12.232;2023-02-28T19:19:03;10.00;96.80
14008;DHT22;61651;45.508;12.232;2023-02-28T19:22:05;9.90;96.80
14008;DHT22;61651;45.508;12.232;2023-02-28T19:25:08;9.80;96.90
14008;DHT22;61651;45.508;12.232;2023-02-28T19:28:11;9.80;97.10
14008;DHT22;61651;45.508;12.232;2023-02-28T19:31:15;9.60;97.00
14008;DHT22;61651;45.508;12.232;2023-02-28T19:34:17;9.60;97.10
14008;DHT22;61651;45.508;12.232;2023-02-28T19:37:19;9.70;97.50
14008;DHT22;61651;45.508;12.232;2023-02-28T19:40:21;9.60;97.10
14008;DHT22;61651;45.508;12.232;2023-02-28T19:43:25;9.60;97.50
14008;DHT22;61651;45.508;12.232;2023-02-28T19:46:27;9.60;97.30
14008;DHT22;61651;45.508;12.232;2023-02-28T19:49:29;9.60;97.10